createdAt,value
2017-10-28T00:02:10.015Z,9.43
2017-10-28T00:04:37.964Z,11.63
2017-10-28T00:07:05.861Z,7.25
2017-10-28T00:09:34.682Z,4.80
2017-10-28T00:12:06.609Z,7.12
2017-10-28T00:14:34.540Z,11.32
2017-10-28T00:17:02.423Z,8.40
2017-10-28T00:19:30.376Z,9.18
2017-10-28T00:21:58.269Z,7.93
2017-10-28T00:24:26.223Z,8.63
2017-10-28T00:26:54.103Z,6.45
2017-10-28T00:29:22.029Z,8.80
2017-10-28T00:31:55.427Z,4.15
2017-10-28T00:34:28.983Z,9.25
2017-10-28T00:36:56.873Z,7.53
2017-10-28T00:39:25.605Z,10.93
2017-10-28T00:41:53.581Z,6.45
2017-10-28T00:44:21.570Z,13.88
2017-10-28T00:46:49.443Z,7.90
2017-10-28T00:49:17.389Z,14.15
2017-10-28T00:51:45.287Z,12.85
2017-10-28T00:54:13.352Z,11.45
2017-10-28T00:56:41.303Z,9.43
2017-10-28T00:59:09.185Z,9.43
2017-10-28T01:01:37.125Z,9.50
2017-10-28T01:04:05.021Z,10.07
2017-10-28T01:06:32.963Z,5.80
2017-10-28T01:09:00.841Z,9.98
2017-10-28T01:11:28.892Z,10.63
2017-10-28T01:13:56.763Z,12.77
2017-10-28T01:16:24.699Z,8.80
2017-10-28T01:18:52.615Z,13.40
2017-10-28T01:21:20.554Z,12.55
2017-10-28T01:23:48.716Z,15.55
2017-10-28T01:26:17.418Z,14.27
2017-10-28T01:28:45.301Z,21.08
2017-10-28T01:31:13.229Z,18.05
2017-10-28T01:33:41.124Z,21.30
2017-10-28T01:36:09.065Z,8.68
2017-10-28T01:38:36.956Z,16.83
2017-10-28T01:41:04.897Z,15.95
2017-10-28T01:43:32.807Z,20.58
2017-10-28T01:46:00.746Z,12.07
2017-10-28T01:48:29.389Z,17.75
2017-10-28T01:50:57.352Z,12.77
2017-10-28T01:53:28.326Z,16.65
2017-10-28T01:55:56.254Z,15.95
2017-10-28T01:58:24.142Z,10.93
2017-10-28T02:00:52.094Z,13.52
2017-10-28T02:03:19.985Z,16.45
2017-10-28T02:05:47.918Z,10.13
2017-10-28T02:08:15.816Z,13.25
2017-10-28T02:10:43.787Z,16.20
2017-10-28T02:13:11.673Z,17.30
2017-10-28T02:15:45.910Z,18.02
2017-10-28T02:18:18.177Z,14.18
2017-10-28T02:20:47.750Z,15.00
2017-10-28T02:23:15.755Z,14.90
2017-10-28T02:25:43.686Z,16.23
2017-10-28T02:28:11.565Z,18.98
2017-10-28T02:30:39.509Z,23.15
2017-10-28T02:33:07.395Z,13.15
2017-10-28T02:35:35.325Z,14.15
2017-10-28T02:38:03.208Z,21.15
2017-10-28T02:40:31.145Z,15.32
2017-10-28T02:42:59.914Z,14.57
2017-10-28T02:45:27.845Z,11.35
2017-10-28T02:47:55.728Z,15.35
2017-10-28T02:50:23.668Z,23.62
2017-10-28T02:52:51.574Z,21.25
2017-10-28T02:55:19.493Z,12.85
2017-10-28T02:57:47.371Z,15.63
2017-10-28T03:00:15.367Z,20.23
2017-10-28T03:02:43.263Z,17.12
2017-10-28T03:05:11.275Z,20.55
2017-10-28T03:07:39.178Z,17.08
2017-10-28T03:10:07.118Z,16.92
2017-10-28T03:12:35.285Z,17.48
2017-10-28T03:15:04.104Z,17.48
2017-10-28T03:17:32.021Z,24.60
2017-10-28T03:20:00.742Z,22.67
2017-10-28T03:22:28.830Z,24.58
2017-10-28T03:24:56.780Z,21.83
2017-10-28T03:27:24.683Z,33.40
2017-10-28T03:29:52.575Z,27.40
2017-10-28T03:32:20.517Z,35.13
2017-10-28T03:34:48.398Z,24.87
2017-10-28T03:37:16.335Z,22.08
2017-10-28T03:39:44.311Z,23.73
2017-10-28T03:42:12.494Z,22.83
2017-10-28T03:44:40.381Z,25.62
2017-10-28T03:47:08.381Z,26.35
2017-10-28T03:49:36.266Z,25.77
2017-10-28T03:52:04.225Z,18.77
2017-10-28T03:54:32.126Z,19.10
2017-10-28T03:57:00.063Z,21.25
2017-10-28T03:59:27.963Z,19.55
2017-10-28T04:01:55.911Z,20.33
2017-10-28T04:04:24.544Z,16.83
2017-10-28T04:06:52.462Z,9.15
2017-10-28T04:09:20.356Z,13.57
2017-10-28T04:11:48.302Z,12.35
2017-10-28T04:14:16.186Z,17.30
2017-10-28T04:16:44.118Z,18.85
2017-10-28T04:19:12.000Z,8.82
2017-10-28T04:21:40.705Z,14.50
2017-10-28T04:24:09.369Z,12.25
2017-10-28T04:26:37.311Z,9.18
2017-10-28T04:29:05.214Z,10.45
2017-10-28T04:31:33.162Z,10.70
2017-10-28T04:34:01.065Z,13.25
2017-10-28T04:36:29.779Z,19.40
2017-10-28T04:38:57.685Z,9.23
2017-10-28T04:41:25.694Z,7.05
2017-10-28T04:43:53.586Z,7.55
2017-10-28T04:46:21.535Z,10.55
2017-10-28T04:48:50.199Z,16.85
2017-10-28T04:51:18.166Z,14.05
2017-10-28T04:53:46.892Z,10.02
2017-10-28T04:56:14.828Z,17.15
2017-10-28T04:58:42.741Z,14.23
2017-10-28T05:01:10.699Z,15.18
2017-10-28T05:03:39.850Z,19.10
2017-10-28T05:06:07.795Z,11.88
2017-10-28T05:08:35.711Z,14.82
2017-10-28T05:11:05.003Z,17.75
2017-10-28T05:13:32.901Z,13.62
2017-10-28T05:16:00.867Z,12.80
2017-10-28T05:18:28.849Z,17.48
2017-10-28T05:20:56.884Z,17.02
2017-10-28T05:23:24.780Z,9.05
2017-10-28T05:25:55.429Z,20.48
2017-10-28T05:28:29.186Z,18.67
2017-10-28T05:31:03.419Z,13.15
2017-10-28T05:33:33.929Z,16.27
2017-10-28T05:36:10.952Z,16.80
2017-10-28T05:38:42.388Z,13.30
2017-10-28T05:41:11.948Z,10.43
2017-10-28T05:43:43.195Z,11.05
2017-10-28T05:46:16.563Z,15.95
2017-10-28T05:48:46.268Z,17.80
2017-10-28T05:51:14.319Z,17.52
2017-10-28T05:53:42.987Z,13.68
2017-10-28T05:56:10.946Z,15.93
2017-10-28T05:58:38.934Z,17.65
2017-10-28T06:01:06.943Z,11.40
2017-10-28T06:03:34.864Z,16.45
2017-10-28T06:06:02.843Z,17.87
2017-10-28T06:08:30.735Z,11.75
2017-10-28T06:10:58.678Z,12.90
2017-10-28T06:13:26.653Z,13.07
2017-10-28T06:15:54.601Z,16.62
2017-10-28T06:18:22.490Z,16.08
2017-10-28T06:20:51.211Z,10.32
2017-10-28T06:23:19.092Z,13.57
2017-10-28T06:25:47.020Z,9.48
2017-10-28T06:28:15.678Z,12.68
2017-10-28T06:30:43.678Z,18.02
2017-10-28T06:33:11.608Z,14.73
2017-10-28T06:35:39.504Z,14.73
2017-10-28T06:38:07.441Z,16.05
2017-10-28T06:40:35.346Z,11.40
2017-10-28T06:43:05.409Z,12.52
2017-10-28T06:45:33.331Z,10.35
2017-10-28T06:48:01.273Z,12.43
2017-10-28T06:50:29.225Z,9.25
2017-10-28T06:52:57.165Z,15.82
2017-10-28T06:55:25.105Z,13.45
2017-10-28T06:57:53.046Z,6.62
2017-10-28T07:00:20.959Z,10.90
2017-10-28T07:02:49.672Z,7.50
2017-10-28T07:05:17.578Z,9.52
2017-10-28T07:07:45.549Z,8.25
2017-10-28T07:10:13.511Z,10.48
2017-10-28T07:12:41.723Z,11.80
2017-10-28T07:15:09.641Z,6.47
2017-10-28T07:17:37.594Z,11.98
2017-10-28T07:20:05.578Z,8.68
2017-10-28T07:22:33.512Z,8.00
2017-10-28T07:25:01.408Z,10.25
2017-10-28T07:27:29.335Z,6.65
2017-10-28T07:29:57.235Z,10.45
2017-10-28T07:32:25.940Z,7.28
2017-10-28T07:34:53.882Z,7.10
2017-10-28T07:37:21.846Z,7.37
2017-10-28T07:39:50.512Z,9.40
2017-10-28T07:42:18.563Z,12.57
2017-10-28T07:44:55.024Z,6.00
2017-10-28T07:47:28.466Z,7.65
2017-10-28T07:50:03.338Z,8.30
2017-10-28T07:52:31.513Z,6.95
2017-10-28T07:54:59.433Z,11.12
2017-10-28T07:57:27.429Z,9.00
2017-10-28T07:59:55.371Z,7.87
2017-10-28T08:02:23.329Z,6.10
2017-10-28T08:04:51.227Z,8.88
2017-10-28T08:07:19.953Z,7.70
2017-10-28T08:09:47.860Z,9.68
2017-10-28T08:12:15.834Z,13.27
2017-10-28T08:14:43.739Z,10.68
2017-10-28T08:17:11.685Z,13.57
2017-10-28T08:19:39.566Z,8.30
2017-10-28T08:22:10.467Z,13.32
2017-10-28T08:24:38.513Z,12.93
2017-10-28T08:27:06.471Z,14.02
2017-10-28T08:29:34.360Z,15.57
2017-10-28T08:32:02.329Z,12.18
2017-10-28T08:34:30.253Z,12.93
2017-10-28T08:36:58.218Z,11.95
2017-10-28T08:39:27.025Z,11.77
2017-10-28T08:41:55.096Z,14.27
2017-10-28T08:44:23.917Z,12.80
2017-10-28T08:46:51.925Z,11.85
2017-10-28T08:49:21.687Z,12.25
2017-10-28T08:51:49.623Z,15.55
2017-10-28T08:54:17.532Z,18.45
2017-10-28T08:56:45.514Z,16.50
2017-10-28T08:59:13.409Z,9.55
2017-10-28T09:01:41.357Z,14.85
2017-10-28T09:04:10.310Z,9.98
2017-10-28T09:06:38.265Z,14.00
2017-10-28T09:09:06.197Z,17.23
2017-10-28T09:11:34.138Z,16.30
2017-10-28T09:14:09.659Z,12.05
2017-10-28T09:16:38.379Z,12.18
2017-10-28T09:19:06.338Z,13.45
2017-10-28T09:21:34.275Z,12.20
2017-10-28T09:24:02.246Z,10.30
2017-10-28T09:26:30.955Z,14.48
2017-10-28T09:28:58.847Z,11.70
2017-10-28T09:31:26.787Z,15.45
2017-10-28T09:33:54.999Z,17.27
2017-10-28T09:36:22.883Z,14.23
2017-10-28T09:38:50.830Z,16.65
2017-10-28T09:41:18.727Z,12.85
2017-10-28T09:43:47.792Z,16.67
2017-10-28T09:46:18.127Z,16.12
2017-10-28T09:48:46.087Z,15.38
2017-10-28T09:51:14.064Z,11.48
2017-10-28T09:53:45.120Z,12.20
2017-10-28T09:56:13.150Z,13.35
2017-10-28T09:58:41.108Z,11.52
2017-10-28T10:01:09.792Z,12.15
2017-10-28T10:03:37.757Z,14.18
2017-10-28T10:06:05.671Z,13.30
2017-10-28T10:08:33.646Z,13.82
2017-10-28T10:11:01.544Z,11.77
2017-10-28T10:13:29.622Z,13.25
2017-10-28T10:15:57.525Z,12.82
2017-10-28T10:18:25.463Z,15.30
2017-10-28T10:20:53.365Z,14.02
2017-10-28T10:23:21.322Z,10.30
2017-10-28T10:25:50.023Z,10.30
2017-10-28T10:28:17.993Z,12.80
2017-10-28T10:30:45.896Z,11.68
2017-10-28T10:33:13.828Z,12.88
2017-10-28T10:35:41.784Z,10.35
2017-10-28T10:38:10.775Z,8.00
2017-10-28T10:40:38.686Z,7.93
2017-10-28T10:43:06.800Z,8.98
2017-10-28T10:45:34.709Z,13.35
2017-10-28T10:48:03.435Z,12.80
2017-10-28T10:50:31.428Z,9.95
2017-10-28T10:52:59.362Z,13.32
2017-10-28T10:55:32.390Z,13.38
2017-10-28T10:58:01.185Z,10.18
2017-10-28T11:00:32.039Z,7.37
2017-10-28T11:03:00.015Z,16.58
2017-10-28T11:05:27.977Z,10.57
2017-10-28T11:07:56.145Z,11.80
2017-10-28T11:10:24.069Z,10.80
2017-10-28T11:12:51.989Z,8.73
2017-10-28T11:15:25.199Z,7.45
2017-10-28T11:17:56.326Z,11.60
2017-10-28T11:20:24.484Z,13.30
2017-10-28T11:22:52.450Z,10.50
2017-10-28T11:25:20.347Z,9.95
2017-10-28T11:27:48.314Z,11.07
2017-10-28T11:30:16.988Z,9.20
2017-10-28T11:32:45.709Z,9.98
2017-10-28T11:35:13.615Z,11.77
2017-10-28T11:37:41.556Z,8.02
2017-10-28T11:40:09.438Z,8.90
2017-10-28T11:42:37.443Z,8.57
2017-10-28T11:45:05.359Z,7.28
2017-10-28T11:47:33.324Z,8.57
2017-10-28T11:50:01.246Z,6.85
2017-10-28T11:52:29.205Z,6.22
2017-10-28T11:54:57.094Z,9.55
2017-10-28T11:57:25.804Z,8.27
2017-10-28T11:59:54.464Z,9.95
2017-10-28T12:02:22.408Z,8.82
2017-10-28T12:04:53.331Z,7.03
2017-10-28T12:07:22.049Z,8.15
2017-10-28T12:09:49.944Z,9.48
2017-10-28T12:12:18.003Z,9.20
2017-10-28T12:14:45.924Z,10.15
2017-10-28T12:17:13.903Z,8.73
2017-10-28T12:19:47.255Z,10.95
2017-10-28T12:22:23.480Z,7.60
2017-10-28T12:24:55.691Z,7.40
2017-10-28T12:27:27.307Z,8.60
2017-10-28T12:29:56.770Z,7.75
2017-10-28T12:32:33.534Z,9.15
2017-10-28T12:35:06.258Z,7.93
2017-10-28T12:37:41.259Z,5.68
2017-10-28T12:40:17.824Z,8.20
2017-10-28T12:42:49.205Z,8.65
2017-10-28T12:45:25.913Z,13.50
2017-10-28T12:47:54.195Z,8.90
2017-10-28T12:50:22.941Z,9.40
2017-10-28T12:52:56.157Z,5.30
2017-10-28T12:55:26.714Z,6.55
2017-10-28T12:57:55.301Z,8.18
2017-10-28T13:00:24.048Z,12.27
2017-10-28T13:02:51.982Z,6.97
2017-10-28T13:05:19.898Z,6.15
2017-10-28T13:07:48.256Z,5.60
2017-10-28T13:10:16.207Z,6.93
2017-10-28T13:12:44.193Z,6.78
2017-10-28T13:15:12.148Z,4.97
2017-10-28T13:17:40.097Z,8.65
2017-10-28T13:20:08.149Z,7.45
2017-10-28T13:22:39.755Z,7.45
2017-10-28T13:25:07.673Z,5.95
2017-10-28T13:27:35.647Z,5.30
2017-10-28T13:30:03.671Z,5.12
2017-10-28T13:32:39.291Z,5.70
2017-10-28T13:35:14.756Z,6.93
2017-10-28T13:37:49.301Z,9.98
2017-10-28T13:40:22.711Z,7.00
2017-10-28T13:42:54.524Z,7.22
2017-10-28T13:45:23.367Z,7.70
2017-10-28T13:47:52.658Z,8.27
2017-10-28T13:50:21.629Z,6.12
2017-10-28T13:52:49.875Z,11.02
2017-10-28T13:55:17.821Z,6.68
2017-10-28T13:57:45.890Z,6.28
2017-10-28T14:00:13.901Z,6.87
2017-10-28T14:02:41.921Z,6.00
2017-10-28T14:05:09.861Z,7.75
2017-10-28T14:07:37.847Z,7.32
2017-10-28T14:10:05.787Z,10.98
2017-10-28T14:12:33.724Z,6.57
2017-10-28T14:15:02.484Z,6.07
2017-10-28T14:17:30.473Z,5.20
2017-10-28T14:19:58.437Z,6.70
2017-10-28T14:22:27.555Z,7.10
2017-10-28T14:24:56.389Z,5.30
2017-10-28T14:27:24.362Z,7.30
2017-10-28T14:29:52.320Z,4.15
2017-10-28T14:32:20.257Z,5.78
2017-10-28T14:34:48.224Z,7.65
2017-10-28T14:37:16.909Z,6.70
2017-10-28T14:39:44.880Z,8.65
2017-10-28T14:42:12.835Z,8.55
2017-10-28T14:44:40.810Z,6.65
2017-10-28T14:47:08.748Z,7.30
2017-10-28T14:49:36.731Z,7.43
2017-10-28T14:52:04.762Z,5.68
2017-10-28T14:54:32.746Z,6.50
2017-10-28T14:57:00.684Z,9.57
2017-10-28T14:59:28.655Z,6.53
2017-10-28T15:01:57.369Z,4.55
2017-10-28T15:04:25.383Z,4.80
2017-10-28T15:06:53.378Z,4.80
2017-10-28T15:09:22.213Z,5.30
2017-10-28T15:11:50.121Z,8.32
2017-10-28T15:14:18.120Z,7.18
2017-10-28T15:16:46.005Z,6.12
2017-10-28T15:19:17.270Z,7.80
2017-10-28T15:21:45.257Z,13.57
2017-10-28T15:24:13.200Z,3.37
2017-10-28T15:26:41.110Z,4.03
2017-10-28T15:29:09.050Z,9.65
2017-10-28T15:31:36.937Z,9.57
2017-10-28T15:34:04.941Z,7.85
2017-10-28T15:36:32.857Z,4.75
2017-10-28T15:39:00.812Z,9.60
2017-10-28T15:41:28.742Z,11.75
2017-10-28T15:43:56.777Z,6.47
2017-10-28T15:46:24.662Z,13.45
2017-10-28T15:48:52.590Z,7.93
2017-10-28T15:51:20.591Z,6.97
2017-10-28T15:53:48.598Z,9.63
2017-10-28T15:56:16.577Z,11.10
2017-10-28T15:58:45.242Z,7.50
2017-10-28T16:01:13.178Z,7.25
2017-10-28T16:03:41.150Z,7.07
2017-10-28T16:06:09.090Z,6.90
2017-10-28T16:08:36.999Z,7.60
2017-10-28T16:11:04.958Z,6.80
2017-10-28T16:13:32.968Z,4.70
2017-10-28T16:16:00.974Z,6.05
2017-10-28T16:18:28.912Z,5.43
2017-10-28T16:20:56.876Z,7.95
2017-10-28T16:23:24.777Z,6.35
2017-10-28T16:25:52.742Z,5.05
2017-10-28T16:28:20.673Z,6.68
2017-10-28T16:30:48.647Z,6.55
2017-10-28T16:33:16.565Z,6.57
2017-10-28T16:35:44.542Z,3.50
2017-10-28T16:38:12.514Z,6.25
2017-10-28T16:40:40.520Z,7.35
2017-10-28T16:43:08.623Z,5.97
2017-10-28T16:45:37.297Z,6.55
2017-10-28T16:48:05.249Z,4.22
2017-10-28T16:50:33.205Z,6.45
2017-10-28T16:53:01.170Z,12.27
2017-10-28T16:55:29.127Z,8.00
2017-10-28T16:57:57.166Z,10.52
2017-10-28T17:00:25.128Z,6.07
2017-10-28T17:02:53.931Z,6.78
2017-10-28T17:05:21.884Z,12.45
2017-10-28T17:07:50.659Z,4.25
2017-10-28T17:10:18.616Z,6.90
2017-10-28T17:12:46.822Z,7.82
2017-10-28T17:15:14.751Z,8.93
2017-10-28T17:17:42.771Z,6.10
2017-10-28T17:20:10.709Z,7.50
2017-10-28T17:22:38.743Z,8.20
2017-10-28T17:25:06.712Z,9.57
2017-10-28T17:27:34.710Z,5.70
2017-10-28T17:30:02.646Z,7.57
2017-10-28T17:32:30.622Z,9.57
2017-10-28T17:34:58.538Z,11.23
2017-10-28T17:37:26.485Z,8.50
2017-10-28T17:39:54.401Z,12.37
2017-10-28T17:42:25.239Z,8.27
2017-10-28T17:44:53.137Z,10.35
2017-10-28T17:47:21.055Z,8.65
2017-10-28T17:49:49.013Z,11.95
2017-10-28T17:52:16.923Z,10.27
2017-10-28T17:54:45.626Z,13.50
2017-10-28T17:57:13.521Z,11.52
2017-10-28T17:59:41.470Z,16.08
2017-10-28T18:02:09.375Z,10.30
2017-10-28T18:04:37.320Z,12.77
2017-10-28T18:07:05.231Z,12.63
2017-10-28T18:09:33.170Z,14.07
2017-10-28T18:12:04.809Z,14.02
2017-10-28T18:14:32.782Z,18.10
2017-10-28T18:17:00.706Z,10.80
2017-10-28T18:19:28.684Z,13.80
2017-10-28T18:21:57.382Z,12.05
2017-10-28T18:24:25.373Z,13.02
2017-10-28T18:26:53.304Z,13.18
2017-10-28T18:29:21.277Z,14.30
2017-10-28T18:31:49.991Z,11.82
2017-10-28T18:34:17.967Z,21.48
2017-10-28T18:36:45.929Z,13.95
2017-10-28T18:39:13.915Z,13.77
2017-10-28T18:41:41.930Z,14.23
2017-10-28T18:44:10.689Z,13.10
2017-10-28T18:46:38.596Z,12.30
2017-10-28T18:49:06.583Z,13.38
2017-10-28T18:51:34.566Z,13.55
2017-10-28T18:54:03.198Z,14.95
2017-10-28T18:56:31.107Z,14.07
2017-10-28T18:58:59.066Z,12.70
2017-10-28T19:01:27.731Z,11.02
2017-10-28T19:03:55.881Z,11.98
2017-10-28T19:06:23.789Z,10.35
2017-10-28T19:08:51.734Z,16.27
2017-10-28T19:11:19.633Z,10.52
2017-10-28T19:13:47.574Z,10.00
2017-10-28T19:16:15.534Z,9.75
2017-10-28T19:18:43.415Z,9.10
2017-10-28T19:21:11.353Z,8.70
2017-10-28T19:23:39.232Z,7.53
2017-10-28T19:26:07.166Z,7.10
2017-10-28T19:28:35.788Z,7.03
2017-10-28T19:31:03.785Z,7.50
2017-10-28T19:33:31.741Z,6.70
2017-10-28T19:35:59.651Z,6.32
2017-10-28T19:38:27.542Z,5.62
2017-10-28T19:40:55.498Z,5.47
2017-10-28T19:43:23.408Z,6.93
2017-10-28T19:45:51.340Z,5.55
2017-10-28T19:48:19.230Z,6.15
2017-10-28T19:50:47.160Z,4.60
2017-10-28T19:53:15.807Z,5.40
2017-10-28T19:55:43.747Z,4.65
2017-10-28T19:58:14.464Z,6.07
2017-10-28T20:00:42.449Z,6.47
2017-10-28T20:03:10.485Z,4.60
2017-10-28T20:05:38.683Z,4.85
2017-10-28T20:08:06.595Z,5.20
2017-10-28T20:10:34.530Z,5.65
2017-10-28T20:13:03.730Z,6.50
2017-10-28T20:15:31.744Z,5.97
2017-10-28T20:17:59.669Z,5.20
2017-10-28T20:20:27.640Z,5.87
2017-10-28T20:22:55.545Z,8.50
2017-10-28T20:25:23.457Z,6.97
2017-10-28T20:27:52.197Z,7.25
2017-10-28T20:30:20.318Z,7.28
2017-10-28T20:32:48.280Z,8.43
2017-10-28T20:35:17.036Z,7.78
2017-10-28T20:37:44.953Z,11.10
2017-10-28T20:40:12.981Z,9.15
2017-10-28T20:42:40.953Z,12.10
2017-10-28T20:45:08.941Z,12.15
2017-10-28T20:47:37.681Z,12.73
2017-10-28T20:50:05.628Z,12.02
2017-10-28T20:52:33.535Z,15.68
2017-10-28T20:55:01.506Z,14.73
2017-10-28T20:57:29.411Z,14.25
2017-10-28T20:59:57.357Z,16.73
2017-10-28T21:02:25.494Z,15.57
2017-10-28T21:04:53.461Z,18.58
2017-10-28T21:07:21.396Z,19.90
2017-10-28T21:09:50.343Z,19.75
2017-10-28T21:12:18.350Z,24.42
2017-10-28T21:14:46.330Z,24.20
2017-10-28T21:17:14.289Z,24.05
2017-10-28T21:19:42.254Z,20.37
2017-10-28T21:22:10.160Z,22.48
2017-10-28T21:24:38.171Z,19.80
2017-10-28T21:27:06.938Z,20.37
2017-10-28T21:29:34.901Z,25.52
2017-10-28T21:32:02.831Z,22.52
2017-10-28T21:34:30.851Z,24.12
2017-10-28T21:36:58.913Z,24.02
2017-10-28T21:39:26.941Z,21.02
2017-10-28T21:41:54.867Z,20.40
2017-10-28T21:44:22.841Z,18.48
2017-10-28T21:46:50.764Z,21.80
2017-10-28T21:49:19.439Z,18.08
2017-10-28T21:51:47.387Z,17.92
2017-10-28T21:54:18.412Z,15.48
2017-10-28T21:56:46.361Z,16.92
2017-10-28T21:59:14.259Z,15.48
2017-10-28T22:01:42.203Z,15.20
2017-10-28T22:04:10.118Z,16.50
2017-10-28T22:06:38.072Z,12.80
2017-10-28T22:09:05.977Z,11.70
2017-10-28T22:11:33.985Z,14.45
2017-10-28T22:14:01.946Z,12.82
2017-10-28T22:16:29.903Z,11.43
2017-10-28T22:18:57.826Z,12.07
2017-10-28T22:21:25.796Z,10.75
2017-10-28T22:23:56.835Z,16.77
2017-10-28T22:26:24.789Z,12.37
2017-10-28T22:28:52.703Z,10.90
2017-10-28T22:31:20.657Z,10.75
2017-10-28T22:33:48.556Z,9.10
2017-10-28T22:36:16.510Z,12.05
2017-10-28T22:38:44.394Z,11.73
2017-10-28T22:41:13.103Z,10.23
2017-10-28T22:43:41.028Z,14.30
2017-10-28T22:46:09.008Z,11.68
2017-10-28T22:48:36.894Z,11.15
2017-10-28T22:51:05.679Z,11.65
2017-10-28T22:53:33.654Z,15.90
2017-10-28T22:56:02.378Z,12.23
2017-10-28T22:58:30.273Z,15.68
2017-10-28T23:00:58.295Z,14.00
2017-10-28T23:03:26.270Z,17.25
2017-10-28T23:05:54.212Z,16.50
2017-10-28T23:08:22.173Z,18.70
2017-10-28T23:10:51.742Z,17.17
2017-10-28T23:13:20.683Z,19.05
2017-10-28T23:15:49.388Z,19.20
2017-10-28T23:18:17.301Z,20.80
2017-10-28T23:20:45.237Z,19.62
2017-10-28T23:23:13.150Z,22.37
2017-10-28T23:25:41.116Z,22.65
2017-10-28T23:28:09.194Z,23.98
2017-10-28T23:30:37.187Z,30.23
2017-10-28T23:33:05.242Z,24.35
2017-10-28T23:35:33.196Z,27.37
2017-10-28T23:38:01.101Z,25.88
2017-10-28T23:40:29.809Z,23.80
2017-10-28T23:42:57.852Z,24.27
2017-10-28T23:45:25.809Z,26.42
2017-10-28T23:47:53.701Z,23.90
2017-10-28T23:50:22.518Z,29.83
2017-10-28T23:52:52.505Z,30.67
2017-10-28T23:55:20.457Z,28.85
2017-10-28T23:57:48.368Z,26.10
